Hauptseite
METAR-TAF:

METAR-TAF

Flughäfen :

Leipzig-Altenburg Airport

Altenburg, Deutschland

Breite: 50-58N, Länge: 012-30E, Höhe: 195 m

Beobachtung

Neuester Wetterbericht von vor 50 Minuten, um 23:50 UTC
Wind 2 kt aus Ost
Temperatur -2°C
Luftdruck 1038 hPa
Sichtweite 10 km oder mehr

METAR: EDAC 042350Z AUTO 08002KT 9999 // BKN035/// M02/// Q1038

Zeit: 01:40 (00:40 UTC)

Prognose

Neuester Wetterbericht von vor 10 Stunden und 40 Minuten, um 14:00 UTC
Gültige Prognose vom 04 um 15 UTC bis 04 um 24 UTC
Wind 5 kt aus Nord/Nordwest
Sichtweite 10 km oder mehr
Aufgelockert bewölkt in der Höhe von 3000 ft

TAF: EDAC 041400Z 0415/0424 33005KT 9999 SCT030

Wetterbeobachtungen und Prognosen von mehr als 4000 Flughäfen (METAR und TAF Bericht).

Die verfügbaren Stationen werden durch gelbe und rote Markierungen auf der Karte dargestellt.

Führen Sie die Maus auf sie, um den Namen der Station zu sehen.

Darauf klicken, um die Beobachtung von Wetterbeobachtungen und Prognosen zu sehen.

Um die Karte zu ändern : klicken Sie auf den grünen Tasten mit einem schwarzen Kreuz Zum Vergrößern, auf den grünen Button mit einem Gedankenstrich zu verkleinern, oder auf die grünen Pfeile für benachbarte Karten.


METAR-TAF: